createdAt,value
2018-08-18T00:00:17.614Z,19.90
2018-08-18T00:02:46.130Z,19.90
2018-08-18T00:05:15.447Z,19.90
2018-08-18T00:07:44.083Z,19.90
2018-08-18T00:10:15.593Z,19.80
2018-08-18T00:12:44.094Z,19.90
2018-08-18T00:15:12.615Z,19.90
2018-08-18T00:17:41.177Z,19.90
2018-08-18T00:20:12.287Z,19.90
2018-08-18T00:22:40.907Z,19.90
2018-08-18T00:25:09.481Z,20.00
2018-08-18T00:27:37.988Z,20.00
2018-08-18T00:30:13.386Z,19.90
2018-08-18T00:32:41.853Z,19.90
2018-08-18T00:35:10.307Z,19.90
2018-08-18T00:37:38.833Z,19.90
2018-08-18T00:40:08.579Z,19.90
2018-08-18T00:42:37.258Z,19.90
2018-08-18T00:45:07.274Z,19.90
2018-08-18T00:47:36.008Z,19.90
2018-08-18T00:50:04.862Z,19.90
2018-08-18T00:52:33.454Z,19.90
2018-08-18T00:55:02.075Z,19.90
2018-08-18T00:57:31.800Z,19.90
2018-08-18T01:00:00.598Z,19.90
2018-08-18T01:02:29.315Z,19.90
2018-08-18T01:05:00.998Z,20.00
2018-08-18T01:07:30.505Z,20.00
2018-08-18T01:09:59.521Z,20.00
2018-08-18T01:12:28.456Z,20.10
2018-08-18T01:14:57.108Z,20.10
2018-08-18T01:17:25.983Z,20.10
2018-08-18T01:19:56.138Z,20.10
2018-08-18T01:22:24.607Z,20.10
2018-08-18T01:24:53.499Z,20.10
2018-08-18T01:27:22.923Z,20.10
2018-08-18T01:29:56.520Z,20.10
2018-08-18T01:32:25.098Z,20.10
2018-08-18T01:34:54.193Z,20.10
2018-08-18T01:37:22.673Z,20.10
2018-08-18T01:39:53.427Z,20.20
2018-08-18T01:42:22.125Z,20.20
2018-08-18T01:44:52.461Z,20.20
2018-08-18T01:47:21.084Z,20.20
2018-08-18T01:49:49.550Z,20.20
2018-08-18T01:52:22.611Z,20.10
2018-08-18T01:54:51.029Z,20.10
2018-08-18T01:57:20.408Z,20.10
2018-08-18T01:59:49.110Z,20.10
2018-08-18T02:02:19.458Z,20.10
2018-08-18T02:04:48.286Z,20.10
2018-08-18T02:07:21.026Z,20.10
2018-08-18T02:09:49.456Z,20.00
2018-08-18T02:12:17.922Z,20.00
2018-08-18T02:14:46.370Z,20.00
2018-08-18T02:17:35.790Z,20.00
2018-08-18T02:20:05.544Z,20.00
2018-08-18T02:22:33.916Z,19.90
2018-08-18T02:25:02.320Z,19.90
2018-08-18T02:27:30.780Z,19.80
2018-08-18T02:30:14.378Z,19.80
2018-08-18T02:32:42.892Z,19.80
2018-08-18T02:35:11.346Z,19.80
2018-08-18T02:37:39.802Z,19.70
2018-08-18T02:40:11.955Z,19.70
2018-08-18T02:42:40.358Z,19.70
2018-08-18T02:45:09.860Z,19.60
2018-08-18T02:47:38.357Z,19.60
2018-08-18T02:50:08.283Z,19.50
2018-08-18T02:52:37.149Z,19.50
2018-08-18T02:55:07.939Z,19.50
2018-08-18T02:57:37.661Z,19.50
2018-08-18T03:00:11.323Z,19.40
2018-08-18T03:02:39.765Z,19.40
2018-08-18T03:05:08.275Z,19.40
2018-08-18T03:07:42.338Z,19.40
2018-08-18T03:10:14.242Z,19.30
2018-08-18T03:12:45.562Z,19.30
2018-08-18T03:16:17.807Z,19.30
2018-08-18T03:18:50.175Z,19.20
2018-08-18T03:21:20.388Z,19.10
2018-08-18T03:24:00.107Z,19.10
2018-08-18T03:26:36.780Z,19.20
2018-08-18T03:29:05.281Z,19.10
2018-08-18T03:31:33.664Z,19.10
2018-08-18T03:34:02.176Z,19.10
2018-08-18T03:36:33.003Z,19.10
2018-08-18T03:39:01.536Z,19.10
2018-08-18T03:41:30.487Z,19.10
2018-08-18T03:43:59.056Z,19.10
2018-08-18T03:46:27.553Z,19.00
2018-08-18T03:48:56.002Z,19.00
2018-08-18T03:51:30.386Z,19.00
2018-08-18T03:53:59.082Z,19.00
2018-08-18T03:56:27.548Z,19.00
2018-08-18T03:58:57.076Z,19.10
2018-08-18T04:02:01.039Z,19.10
2018-08-18T04:04:30.999Z,19.00
2018-08-18T04:07:00.464Z,19.00
2018-08-18T04:09:31.113Z,19.00
2018-08-18T04:12:01.182Z,19.00
2018-08-18T04:14:35.095Z,19.00
2018-08-18T04:17:03.556Z,19.00
2018-08-18T04:19:31.999Z,19.00
2018-08-18T04:22:00.526Z,19.00
2018-08-18T04:25:01.099Z,19.00
2018-08-18T04:27:37.436Z,18.90
2018-08-18T04:30:08.336Z,19.00
2018-08-18T04:32:49.007Z,19.00
2018-08-18T04:35:18.845Z,19.00
2018-08-18T04:37:47.509Z,19.00
2018-08-18T04:40:15.972Z,19.00
2018-08-18T04:42:44.416Z,19.00
2018-08-18T04:45:14.760Z,19.00
2018-08-18T04:47:43.190Z,19.00
2018-08-18T04:50:11.661Z,18.90
2018-08-18T04:52:40.654Z,19.00
2018-08-18T04:55:09.152Z,18.90
2018-08-18T04:57:37.930Z,18.90
2018-08-18T05:00:07.864Z,18.90
2018-08-18T05:02:43.076Z,18.90
2018-08-18T05:05:12.187Z,18.90
2018-08-18T05:07:49.963Z,18.90
2018-08-18T05:10:20.011Z,19.00
2018-08-18T05:12:48.459Z,19.00
2018-08-18T05:15:18.081Z,19.10
2018-08-18T05:17:47.331Z,19.10
2018-08-18T05:20:24.777Z,19.10
2018-08-18T05:22:53.300Z,19.10
2018-08-18T05:25:42.055Z,19.10
2018-08-18T05:28:10.456Z,19.00
2018-08-18T05:30:39.447Z,19.10
2018-08-18T05:33:08.430Z,19.10
2018-08-18T05:35:36.856Z,19.10
2018-08-18T05:38:05.385Z,19.10
2018-08-18T05:40:34.341Z,19.10
2018-08-18T05:43:03.515Z,19.20
2018-08-18T05:45:33.391Z,19.30
2018-08-18T05:48:01.870Z,19.40
2018-08-18T05:50:30.691Z,19.50
2018-08-18T05:53:20.772Z,19.60
2018-08-18T05:55:49.962Z,19.70
2018-08-18T05:58:18.438Z,19.90
2018-08-18T06:00:47.292Z,20.00
2018-08-18T06:03:16.656Z,20.10
2018-08-18T06:05:45.172Z,20.20
2018-08-18T06:08:13.667Z,20.20
2018-08-18T06:10:42.220Z,20.30
2018-08-18T06:13:16.752Z,20.40
2018-08-18T06:16:17.510Z,20.40
2018-08-18T06:18:45.980Z,20.50
2018-08-18T06:21:14.535Z,20.60
2018-08-18T06:23:43.150Z,20.70
2018-08-18T06:26:11.588Z,20.70
2018-08-18T06:28:40.035Z,20.60
2018-08-18T06:31:08.495Z,20.60
2018-08-18T06:33:36.961Z,20.60
2018-08-18T06:36:05.509Z,20.60
2018-08-18T06:38:34.013Z,20.70
2018-08-18T06:41:03.421Z,20.80
2018-08-18T06:43:32.953Z,20.80
2018-08-18T06:46:01.808Z,20.90
2018-08-18T06:48:33.009Z,21.00
2018-08-18T06:51:01.776Z,21.10
2018-08-18T06:53:30.823Z,21.20
2018-08-18T06:56:00.811Z,21.30
2018-08-18T06:58:29.288Z,21.30
2018-08-18T07:00:57.724Z,21.40
2018-08-18T07:03:38.147Z,21.40
2018-08-18T07:06:07.513Z,21.40
2018-08-18T07:08:41.496Z,21.40
2018-08-18T07:11:10.532Z,21.40
2018-08-18T07:13:39.326Z,21.30
2018-08-18T07:16:08.199Z,21.40
2018-08-18T07:18:36.708Z,21.40
2018-08-18T07:21:05.218Z,21.40
2018-08-18T07:23:33.632Z,21.50
2018-08-18T07:26:03.093Z,21.50
2018-08-18T07:28:31.566Z,21.70
2018-08-18T07:31:00.188Z,21.70
2018-08-18T07:33:28.744Z,21.80
2018-08-18T07:35:57.319Z,21.80
2018-08-18T07:38:25.770Z,21.90
2018-08-18T07:40:55.190Z,22.00
2018-08-18T07:43:27.590Z,22.10
2018-08-18T07:45:57.646Z,22.20
2018-08-18T07:48:26.084Z,22.20
2018-08-18T07:50:54.565Z,22.30
2018-08-18T07:53:23.100Z,22.40
2018-08-18T07:55:51.551Z,22.50
2018-08-18T07:58:22.237Z,22.60
2018-08-18T08:00:50.706Z,22.70
2018-08-18T08:03:19.785Z,22.70
2018-08-18T08:05:48.235Z,22.80
2018-08-18T08:08:16.710Z,22.90
2018-08-18T08:10:45.226Z,23.00
2018-08-18T08:13:14.455Z,22.90
2018-08-18T08:15:42.912Z,23.00
2018-08-18T08:18:13.239Z,23.10
2018-08-18T08:20:42.361Z,23.20
2018-08-18T08:23:11.328Z,23.20
2018-08-18T08:25:39.854Z,23.20
2018-08-18T08:28:08.378Z,23.20
2018-08-18T08:30:36.889Z,23.30
2018-08-18T08:33:05.538Z,23.40
2018-08-18T08:35:37.048Z,23.30
2018-08-18T08:38:05.601Z,23.40
2018-08-18T08:40:34.211Z,23.50
2018-08-18T08:43:03.015Z,23.50
2018-08-18T08:45:31.485Z,23.60
2018-08-18T08:48:00.141Z,23.80
2018-08-18T08:50:28.684Z,24.00
2018-08-18T08:52:58.024Z,24.20
2018-08-18T08:55:28.423Z,24.30
2018-08-18T08:57:56.958Z,24.30
2018-08-18T09:00:25.378Z,24.40
2018-08-18T09:02:53.858Z,24.60
2018-08-18T09:05:22.475Z,24.60
2018-08-18T09:07:50.939Z,24.50
2018-08-18T09:10:19.447Z,24.50
2018-08-18T09:12:47.921Z,24.50
2018-08-18T09:15:17.367Z,24.50
2018-08-18T09:17:45.817Z,24.70
2018-08-18T09:20:16.864Z,24.80
2018-08-18T09:22:51.918Z,24.80
2018-08-18T09:25:20.378Z,24.90
2018-08-18T09:27:53.566Z,25.30
2018-08-18T09:30:23.697Z,25.50
2018-08-18T09:32:52.284Z,25.70
2018-08-18T09:35:20.797Z,25.80
2018-08-18T09:37:59.123Z,25.90
2018-08-18T09:40:28.854Z,26.00
2018-08-18T09:42:57.363Z,26.00
2018-08-18T09:45:25.972Z,25.90
2018-08-18T09:47:54.494Z,25.90
2018-08-18T09:50:22.952Z,25.90
2018-08-18T09:52:51.422Z,26.20
2018-08-18T09:55:19.878Z,26.20
2018-08-18T09:57:48.337Z,26.30
2018-08-18T10:00:16.931Z,26.40
2018-08-18T10:02:45.402Z,26.50
2018-08-18T10:05:13.950Z,26.60
2018-08-18T10:07:42.685Z,26.80
2018-08-18T10:10:13.182Z,26.80
2018-08-18T10:12:41.653Z,26.90
2018-08-18T10:15:10.198Z,27.00
2018-08-18T10:17:39.602Z,27.10
2018-08-18T10:20:08.237Z,27.20
2018-08-18T10:22:36.878Z,27.10
2018-08-18T10:25:06.097Z,27.20
2018-08-18T10:27:34.518Z,27.30
2018-08-18T10:30:03.035Z,27.20
2018-08-18T10:32:31.611Z,27.00
2018-08-18T10:35:00.077Z,27.10
2018-08-18T10:37:28.530Z,27.30
2018-08-18T10:40:02.101Z,27.30
2018-08-18T10:42:31.922Z,27.30
2018-08-18T10:45:00.914Z,27.40
2018-08-18T10:47:29.680Z,27.40
2018-08-18T10:50:09.892Z,27.30
2018-08-18T10:52:49.575Z,27.50
2018-08-18T10:55:18.879Z,27.70
2018-08-18T10:58:05.897Z,27.70
2018-08-18T11:00:34.757Z,27.70
2018-08-18T11:03:04.692Z,27.70
2018-08-18T11:05:33.225Z,27.60
2018-08-18T11:08:06.818Z,27.30
2018-08-18T11:10:36.805Z,27.50
2018-08-18T11:13:05.469Z,27.50
2018-08-18T11:15:34.006Z,27.60
2018-08-18T11:18:02.502Z,27.90
2018-08-18T11:20:32.618Z,28.20
2018-08-18T11:23:09.335Z,28.20
2018-08-18T11:25:40.970Z,28.00
2018-08-18T11:28:10.277Z,28.10
2018-08-18T11:30:38.818Z,28.30
2018-08-18T11:33:07.490Z,28.50
2018-08-18T11:35:36.507Z,28.50
2018-08-18T11:38:13.264Z,28.70
2018-08-18T11:40:41.845Z,28.80
2018-08-18T11:43:12.294Z,28.80
2018-08-18T11:45:41.702Z,28.90
2018-08-18T11:48:13.248Z,29.00
2018-08-18T11:50:42.255Z,29.10
2018-08-18T11:53:10.693Z,29.20
2018-08-18T11:55:39.553Z,29.20
2018-08-18T11:58:09.653Z,29.20
2018-08-18T12:01:10.902Z,29.20
2018-08-18T12:03:39.355Z,29.20
2018-08-18T12:06:07.863Z,29.10
2018-08-18T12:08:36.758Z,29.20
2018-08-18T12:11:06.708Z,29.10
2018-08-18T12:13:41.908Z,29.10
2018-08-18T12:16:13.346Z,29.20
2018-08-18T12:18:43.143Z,29.20
2018-08-18T12:21:12.079Z,29.20
2018-08-18T12:23:42.120Z,29.30
2018-08-18T12:26:14.214Z,29.30
2018-08-18T12:28:46.949Z,29.40
2018-08-18T12:31:30.420Z,29.30
2018-08-18T12:33:58.921Z,29.40
2018-08-18T12:36:27.518Z,29.50
2018-08-18T12:38:57.354Z,29.50
2018-08-18T12:41:25.899Z,29.50
2018-08-18T12:43:56.001Z,29.60
2018-08-18T12:46:28.729Z,29.60
2018-08-18T12:48:57.218Z,29.50
2018-08-18T12:51:25.779Z,29.40
2018-08-18T12:53:55.949Z,29.30
2018-08-18T12:56:26.163Z,29.10
2018-08-18T12:58:54.646Z,29.20
2018-08-18T13:01:38.627Z,29.20
2018-08-18T13:04:09.633Z,29.10
2018-08-18T13:06:41.271Z,29.20
2018-08-18T13:09:11.887Z,29.20
2018-08-18T13:11:40.762Z,29.20
2018-08-18T13:14:09.229Z,29.20
2018-08-18T13:16:38.253Z,29.20
2018-08-18T13:19:07.204Z,29.20
2018-08-18T13:21:35.661Z,29.20
2018-08-18T13:24:04.236Z,29.20
2018-08-18T13:26:32.656Z,29.20
2018-08-18T13:29:01.486Z,29.20
2018-08-18T13:31:35.227Z,29.20
2018-08-18T13:34:03.844Z,29.20
2018-08-18T13:36:33.887Z,29.00
2018-08-18T13:39:02.400Z,29.00
2018-08-18T13:41:30.860Z,28.90
2018-08-18T13:43:59.310Z,28.80
2018-08-18T13:46:39.006Z,28.80
2018-08-18T13:49:07.808Z,28.80
2018-08-18T13:51:36.271Z,28.80
2018-08-18T13:54:05.154Z,28.90
2018-08-18T13:56:33.627Z,28.80
2018-08-18T13:59:02.195Z,28.90
2018-08-18T14:01:47.044Z,28.90
2018-08-18T14:04:21.189Z,28.90
2018-08-18T14:06:54.409Z,28.90
2018-08-18T14:11:51.374Z,28.90
2018-08-18T14:14:19.835Z,28.80
2018-08-18T14:16:51.118Z,28.80
2018-08-18T14:19:21.370Z,28.80
2018-08-18T14:21:54.047Z,28.80
2018-08-18T14:24:26.713Z,28.70
2018-08-18T14:27:01.410Z,28.70
2018-08-18T14:29:31.541Z,28.60
2018-08-18T14:32:00.721Z,28.60
2018-08-18T14:34:29.274Z,28.60
2018-08-18T14:37:04.878Z,28.50
2018-08-18T14:39:36.744Z,28.60
2018-08-18T14:42:05.857Z,28.50
2018-08-18T14:44:34.440Z,28.50
2018-08-18T14:47:02.923Z,28.50
2018-08-18T14:49:31.904Z,28.40
2018-08-18T14:52:00.348Z,28.40
2018-08-18T14:54:30.110Z,28.40
2018-08-18T14:57:00.611Z,28.40
2018-08-18T14:59:34.114Z,28.50
2018-08-18T15:02:04.338Z,28.40
2018-08-18T15:04:33.442Z,28.30
2018-08-18T15:07:01.908Z,28.20
2018-08-18T15:09:41.554Z,28.20
2018-08-18T15:12:10.070Z,28.20
2018-08-18T15:14:38.538Z,28.10
2018-08-18T15:17:07.060Z,28.20
2018-08-18T15:19:35.505Z,28.20
2018-08-18T15:22:09.426Z,28.30
2018-08-18T15:24:38.205Z,28.20
2018-08-18T15:27:06.921Z,28.20
2018-08-18T15:29:35.362Z,28.20
2018-08-18T15:32:03.917Z,28.20
2018-08-18T15:34:32.370Z,28.30
2018-08-18T15:37:00.813Z,28.30
2018-08-18T15:39:29.781Z,28.30
2018-08-18T15:41:59.492Z,28.30
2018-08-18T15:44:28.130Z,28.30
2018-08-18T15:46:57.078Z,28.20
2018-08-18T15:49:25.635Z,28.20
2018-08-18T15:51:54.549Z,28.20
2018-08-18T15:54:23.632Z,28.20
2018-08-18T15:56:52.015Z,28.10
2018-08-18T15:59:20.459Z,28.10
2018-08-18T16:01:48.874Z,28.10
2018-08-18T16:04:17.339Z,28.10
2018-08-18T16:06:45.967Z,28.10
2018-08-18T16:09:14.484Z,28.10
2018-08-18T16:11:42.926Z,28.20
2018-08-18T16:14:11.440Z,28.20
2018-08-18T16:16:55.673Z,28.10
2018-08-18T16:19:24.838Z,28.00
2018-08-18T16:21:53.654Z,27.90
2018-08-18T16:24:31.843Z,27.90
2018-08-18T16:27:02.059Z,27.90
2018-08-18T16:29:30.547Z,27.90
2018-08-18T16:32:14.704Z,27.90
2018-08-18T16:34:44.965Z,27.90
2018-08-18T16:37:20.107Z,27.90
2018-08-18T16:39:48.654Z,27.80
2018-08-18T16:42:17.090Z,27.80
2018-08-18T16:44:45.589Z,27.80
2018-08-18T16:47:14.100Z,27.80
2018-08-18T16:49:42.703Z,27.80
2018-08-18T16:52:11.284Z,27.90
2018-08-18T16:54:39.880Z,28.20
2018-08-18T16:57:08.672Z,28.80
2018-08-18T16:59:37.874Z,30.00
2018-08-18T17:02:09.664Z,31.10
2018-08-18T17:04:38.150Z,31.80
2018-08-18T17:07:13.556Z,31.50
2018-08-18T17:09:43.306Z,31.10
2018-08-18T17:12:18.722Z,30.60
2018-08-18T17:14:47.539Z,30.10
2018-08-18T17:17:16.031Z,29.50
2018-08-18T17:19:44.589Z,29.10
2018-08-18T17:22:14.618Z,28.80
2018-08-18T17:24:43.093Z,28.60
2018-08-18T17:27:11.557Z,28.40
2018-08-18T17:29:41.581Z,28.30
2018-08-18T17:32:10.447Z,28.10
2018-08-18T17:34:39.280Z,28.00
2018-08-18T17:37:07.992Z,27.90
2018-08-18T17:39:36.753Z,27.80
2018-08-18T17:42:05.397Z,27.70
2018-08-18T17:44:33.873Z,27.60
2018-08-18T17:47:07.154Z,27.60
2018-08-18T17:49:41.873Z,27.50
2018-08-18T17:52:10.433Z,27.50
2018-08-18T17:54:39.247Z,27.30
2018-08-18T17:57:08.480Z,27.20
2018-08-18T17:59:37.603Z,27.10
2018-08-18T18:02:09.813Z,27.00
2018-08-18T18:04:38.279Z,26.90
2018-08-18T18:07:07.534Z,26.80
2018-08-18T18:09:36.032Z,26.80
2018-08-18T18:12:32.821Z,26.70
2018-08-18T18:15:01.225Z,26.60
2018-08-18T18:17:29.834Z,26.50
2018-08-18T18:19:59.536Z,26.40
2018-08-18T18:22:40.013Z,26.40
2018-08-18T18:25:08.553Z,26.30
2018-08-18T18:27:37.020Z,26.20
2018-08-18T18:30:05.528Z,26.20
2018-08-18T18:32:34.006Z,26.10
2018-08-18T18:35:02.569Z,26.00
2018-08-18T18:37:31.034Z,25.90
2018-08-18T18:40:02.025Z,25.90
2018-08-18T18:42:30.562Z,25.80
2018-08-18T18:44:59.721Z,25.70
2018-08-18T18:47:29.247Z,25.70
2018-08-18T18:49:58.024Z,25.70
2018-08-18T18:52:26.663Z,25.60
2018-08-18T18:54:57.960Z,25.60
2018-08-18T18:57:26.922Z,25.50
2018-08-18T18:59:57.493Z,25.50
2018-08-18T19:02:29.438Z,25.40
2018-08-18T19:04:57.969Z,25.30
2018-08-18T19:07:26.507Z,25.30
2018-08-18T19:09:59.302Z,25.30
2018-08-18T19:12:27.825Z,25.10
2018-08-18T19:14:56.275Z,25.10
2018-08-18T19:17:24.921Z,25.00
2018-08-18T19:20:03.520Z,25.00
2018-08-18T19:22:32.723Z,24.90
2018-08-18T19:25:01.448Z,24.90
2018-08-18T19:27:30.135Z,24.80
2018-08-18T19:29:58.783Z,24.70
2018-08-18T19:32:27.491Z,24.70
2018-08-18T19:34:56.037Z,24.60
2018-08-18T19:37:24.574Z,24.60
2018-08-18T19:39:53.102Z,24.60
2018-08-18T19:42:21.716Z,24.50
2018-08-18T19:44:51.732Z,24.50
2018-08-18T19:47:29.528Z,24.50
2018-08-18T19:49:59.586Z,24.40
2018-08-18T19:52:28.313Z,24.40
2018-08-18T19:54:56.811Z,24.30
2018-08-18T19:57:30.772Z,24.30
2018-08-18T20:00:07.730Z,24.20
2018-08-18T20:02:49.934Z,24.10
2018-08-18T20:05:19.613Z,23.90
2018-08-18T20:07:49.048Z,23.70
2018-08-18T20:10:17.784Z,23.50
2018-08-18T20:12:46.335Z,23.40
2018-08-18T20:15:15.531Z,23.30
2018-08-18T20:17:44.406Z,23.30
2018-08-18T20:20:13.939Z,23.30
2018-08-18T20:22:43.223Z,23.20
2018-08-18T20:25:11.827Z,23.10
2018-08-18T20:27:40.345Z,23.10
2018-08-18T20:30:08.987Z,23.00
2018-08-18T20:32:37.520Z,23.00
2018-08-18T20:35:06.142Z,22.90
2018-08-18T20:37:34.970Z,22.80
2018-08-18T20:40:03.603Z,22.80
2018-08-18T20:42:37.581Z,22.70
2018-08-18T20:45:06.167Z,22.60
2018-08-18T20:47:34.626Z,22.50
2018-08-18T20:50:03.120Z,22.50
2018-08-18T20:52:31.624Z,22.30
2018-08-18T20:55:01.406Z,22.20
2018-08-18T20:57:29.868Z,22.20
2018-08-18T20:59:58.403Z,22.10
2018-08-18T21:02:26.867Z,22.00
2018-08-18T21:04:57.941Z,22.00
2018-08-18T21:07:27.583Z,21.90
2018-08-18T21:09:56.108Z,21.90
2018-08-18T21:12:31.112Z,21.80
2018-08-18T21:14:59.574Z,21.80
2018-08-18T21:17:28.608Z,21.80
2018-08-18T21:19:57.046Z,21.80
2018-08-18T21:22:30.431Z,21.80
2018-08-18T21:24:59.440Z,21.80
2018-08-18T21:27:27.900Z,21.80
2018-08-18T21:29:57.337Z,21.70
2018-08-18T21:32:27.111Z,21.60
2018-08-18T21:34:55.691Z,21.50
2018-08-18T21:37:24.383Z,21.40
2018-08-18T21:39:53.411Z,21.30
2018-08-18T21:42:21.903Z,21.20
2018-08-18T21:44:53.735Z,21.20
2018-08-18T21:47:22.217Z,21.20
2018-08-18T21:49:50.893Z,21.20
2018-08-18T21:52:19.385Z,21.20
2018-08-18T21:54:47.813Z,21.20
2018-08-18T21:57:16.239Z,21.20
2018-08-18T21:59:52.813Z,21.20
2018-08-18T22:02:34.270Z,21.20
2018-08-18T22:05:02.786Z,21.20
2018-08-18T22:07:39.376Z,21.10
2018-08-18T22:10:09.411Z,21.00
2018-08-18T22:12:38.120Z,20.80
2018-08-18T22:15:12.433Z,20.80
2018-08-18T22:17:41.095Z,20.90
2018-08-18T22:20:09.642Z,20.90
2018-08-18T22:22:38.120Z,20.90
2018-08-18T22:25:06.740Z,20.80
2018-08-18T22:27:36.696Z,20.80
2018-08-18T22:30:07.484Z,20.70
2018-08-18T22:32:39.026Z,20.70
2018-08-18T22:35:08.066Z,20.70
2018-08-18T22:37:36.617Z,20.70
2018-08-18T22:40:05.781Z,20.70
2018-08-18T22:42:34.267Z,20.70
2018-08-18T22:45:14.296Z,20.70
2018-08-18T22:47:43.598Z,20.70
2018-08-18T22:50:12.061Z,20.70
2018-08-18T22:52:40.808Z,20.70
2018-08-18T22:55:09.277Z,20.70
2018-08-18T22:57:37.839Z,20.60
2018-08-18T23:00:06.301Z,20.60
2018-08-18T23:02:34.767Z,20.70
2018-08-18T23:05:03.281Z,20.60
2018-08-18T23:07:31.814Z,20.50
2018-08-18T23:10:00.271Z,20.40
2018-08-18T23:12:28.791Z,20.50
2018-08-18T23:14:57.221Z,20.40
2018-08-18T23:17:25.723Z,20.40
2018-08-18T23:19:54.219Z,20.40
2018-08-18T23:22:34.530Z,20.30
2018-08-18T23:25:02.992Z,20.30
2018-08-18T23:27:31.438Z,20.30
2018-08-18T23:29:59.887Z,20.40
2018-08-18T23:32:28.354Z,20.30
2018-08-18T23:34:57.908Z,20.40
2018-08-18T23:37:26.396Z,20.40
2018-08-18T23:39:56.262Z,20.40
2018-08-18T23:42:25.620Z,20.30
2018-08-18T23:44:54.074Z,20.30
2018-08-18T23:47:23.166Z,20.30
2018-08-18T23:49:51.697Z,20.30
2018-08-18T23:52:20.135Z,20.20
2018-08-18T23:54:48.699Z,20.20
2018-08-18T23:57:18.237Z,20.20
2018-08-18T23:59:47.309Z,20.10
